Pasio Per Formentera — ECAC — position and weather

sailwx.info

Track history (hours):
 
Tides and Currents Weather Stations Pressure Air Temp Water Temp Dewpoint Dewpoint Depression Visibility Wind Speed Wind Dir Waves Ship Positions

Pasio Per Formentera

Last reported at 2018-Jul-20 23:31 UTC. Time now 2018-Jul-20 23:32 UTC.
Position N 35°54' W 005°19'.

Length 101 m; draft 4.2 m.

Type: Ship. MMSI: 224593000.

Date/timePositionNaut miles runAvg speedWind from/ knotsBaromVisibWave heightAir tempDewpointWater temp
2018-Jul-20 23:31N 35°54' W 005°19'0 0.0
2018-Jul-20 23:00N 35°54' W 005°19'5 9.4
2018-Jul-20 22:30N 35°58' W 005°19'918.6
2018-Jul-20 22:00N 36°07' W 005°24'2 4.3
2018-Jul-20 21:30N 36°08' W 005°26'0 0.0
2018-Jul-20 21:00N 36°08' W 005°26'0 0.0
2018-Jul-20 20:30N 36°08' W 005°26'0 0.0
2018-Jul-20 20:00N 36°08' W 005°26'0 0.0
2018-Jul-20 19:30N 36°08' W 005°26'3 6.0
2018-Jul-20 19:00N 36°06' W 005°23'917.7
2018-Jul-20 18:30N 35°58' W 005°20'4 7.7
2018-Jul-20 18:00N 35°54' W 005°19'0 0.0
2018-Jul-20 17:30N 35°54' W 005°19'612.1
2018-Jul-20 17:01N 35°60' W 005°21'917.9
2018-Jul-20 16:30N 36°08' W 005°24'1 1.6
2018-Jul-20 15:40N 36°08' W 005°26'2 7.2
2018-Jul-20 15:26N 36°08' W 005°24'717.7
2018-Jul-20 15:00N 36°01' W 005°21'714.6
2018-Jul-20 14:30N 35°54' W 005°19'0 0.5
2018-Jul-20 14:00N 35°54' W 005°19'10 0.4
2018-Jul-19 12:52N 36°04' W 005°22'4 0.1
2018-Jul-18 06:29N 36°07' W 005°24'2 2.5
2018-Jul-18 05:44N 36°08' W 005°26'0 0.0
2018-Jul-18 05:30N 36°08' W 005°26'2 4.0
2018-Jul-18 04:59N 36°07' W 005°24'918.0
2018-Jul-18 04:30N 35°59' W 005°21'510.7
2018-Jul-18 04:00N 35°54' W 005°19'0 0.0
2018-Jul-18 03:30N 35°54' W 005°19'0 0.0
2018-Jul-18 03:00N 35°54' W 005°19'0 0.0
2018-Jul-18 02:30N 35°54' W 005°19'0 0.0
2018-Jul-18 02:00N 35°54' W 005°19'0 0.0
2018-Jul-18 01:30N 35°54' W 005°19'0 0.0
2018-Jul-18 01:00N 35°54' W 005°19'0 0.0
2018-Jul-18 00:30N 35°54' W 005°19'0 0.0
2018-Jul-18 00:00N 35°54' W 005°19'0 0.0
2018-Jul-17 23:30N 35°54' W 005°19'0 0.0
2018-Jul-17 23:00N 35°54' W 005°19'3 5.2
2018-Jul-17 22:30N 35°56' W 005°18'1018.8
2018-Jul-17 22:00N 36°05' W 005°24'4 7.7
2018-Jul-17 21:30N 36°08' W 005°26'0 0.0
2018-Jul-17 21:00N 36°08' W 005°26'0 0.0
2018-Jul-17 20:29N 36°08' W 005°26'0 0.0
2018-Jul-17 19:59N 36°08' W 005°26'0 0.1
2018-Jul-17 19:30N 36°08' W 005°26'3 6.9
2018-Jul-17 19:00N 36°06' W 005°23'917.4
2018-Jul-17 18:30N 35°58' W 005°19'4 8.1
2018-Jul-17 18:01N 35°54' W 005°19'0 0.6
2018-Jul-17 17:31N 35°54' W 005°19'714.9
2018-Jul-17 17:00N 36°01' W 005°22'917.1
2018-Jul-17 16:30N 36°09' W 005°25'1 1.2
2018-Jul-17 15:27N 36°08' W 005°26'2 5.1
2018-Jul-17 15:00N 36°07' W 005°24'918.4
2018-Jul-17 14:31N 35°58' W 005°21'5 9.0
2018-Jul-17 14:00N 35°54' W 005°19'0 0.0
2018-Jul-17 13:31N 35°54' W 005°19'3 6.6
2018-Jul-17 13:01N 35°57' W 005°19'917.8
2018-Jul-17 12:31N 36°05' W 005°23'4 5.6
2018-Jul-17 11:51N 36°08' W 005°26'7 4.8
2018-Jul-17 10:17N 36°02' W 005°21'517.9
2018-Jul-17 10:00N 35°57' W 005°20'3 5.9
2018-Jul-17 09:30N 35°54' W 005°19'0 0.0
2018-Jul-17 09:00N 35°54' W 005°19'0 0.0
2018-Jul-17 08:30N 35°54' W 005°19'5 3.4
2018-Jul-17 06:58N 35°59' W 005°20'918.3
2018-Jul-17 06:30N 36°07' W 005°24'2 3.3
2018-Jul-17 05:48N 36°08' W 005°26'0 0.0
2018-Jul-17 05:30N 36°08' W 005°26'3 6.3
2018-Jul-17 05:00N 36°06' W 005°23'917.9
2018-Jul-17 04:30N 35°57' W 005°20'4 7.0
2018-Jul-17 03:59N 35°54' W 005°19'0 0.0
2018-Jul-17 03:30N 35°54' W 005°19'0 0.0
2018-Jul-17 03:00N 35°54' W 005°19'0 0.0
2018-Jul-17 02:30N 35°54' W 005°19'0 0.0
2018-Jul-17 02:00N 35°54' W 005°19'0 0.0
2018-Jul-17 01:29N 35°54' W 005°19'0 0.0
2018-Jul-17 01:00N 35°54' W 005°19'0 0.0
2018-Jul-17 00:30N 35°54' W 005°19'0 0.0
2018-Jul-16 23:30N 35°54' W 005°19'0 0.0
2018-Jul-16 23:00N 35°54' W 005°19'4 7.9
2018-Jul-16 22:31N 35°58' W 005°20'917.7
2018-Jul-16 22:00N 36°06' W 005°23'3 6.0
2018-Jul-16 21:29N 36°08' W 005°26'0 0.0
2018-Jul-16 21:00N 36°08' W 005°26'0 0.0
2018-Jul-16 20:29N 36°08' W 005°26'0 0.0
2018-Jul-16 20:00N 36°08' W 005°26'0 0.0
2018-Jul-16 19:31N 36°08' W 005°26'2 4.4
2018-Jul-16 19:00N 36°07' W 005°24'918.0
2018-Jul-16 18:30N 35°59' W 005°20'510.4
2018-Jul-16 18:00N 35°54' W 005°19'0 0.0
2018-Jul-16 17:30N 35°54' W 005°19'2 3.6
2018-Jul-16 17:00N 35°55' W 005°19'918.5
2018-Jul-16 16:30N 36°04' W 005°23'5 9.1
2018-Jul-16 16:00N 36°08' W 005°26'0 0.1
2018-Jul-16 15:29N 36°08' W 005°26'2 3.4
2018-Jul-16 14:58N 36°08' W 005°24'817.9
2018-Jul-16 14:29N 36°00' W 005°21'714.4
2018-Jul-16 14:00N 35°54' W 005°19'0 0.3
2018-Jul-16 13:30N 35°54' W 005°19'3 5.4
2018-Jul-16 13:00N 35°56' W 005°19'1019.0
2018-Jul-16 12:30N 36°05' W 005°23'3 2.5
2018-Jul-16 11:08N 36°08' W 005°26'0 1.6
2018-Jul-16 11:00N 36°08' W 005°26'5 9.7
2018-Jul-16 10:31N 36°04' W 005°22'917.6
2018-Jul-16 10:01N 35°56' W 005°19'2 4.0
2018-Jul-16 09:30N 35°54' W 005°19'0 0.0
2018-Jul-16 09:00N 35°54' W 005°19'0 0.0
2018-Jul-16 08:30N 35°54' W 005°19'0 0.0
2018-Jul-16 08:00N 35°54' W 005°19'0 0.0
2018-Jul-16 07:29N 35°54' W 005°19'510.6
2018-Jul-16 07:00N 35°59' W 005°20'917.8
2018-Jul-16 06:30N 36°07' W 005°24'2 4.1
2018-Jul-16 06:00N 36°08' W 005°26'0 0.8
2018-Jul-16 05:30N 36°08' W 005°26'710.3
2018-Jul-16 04:48N 36°02' W 005°22'517.6
2018-Jul-16 04:30N 35°57' W 005°20'3 6.7
2018-Jul-16 04:00N 35°54' W 005°19'0 0.0
2018-Jul-16 03:30N 35°54' W 005°19'0 0.0
2018-Jul-16 03:00N 35°54' W 005°19'0 0.0
2018-Jul-16 02:30N 35°54' W 005°19'0 0.0
2018-Jul-16 02:00N 35°54' W 005°19'0 0.0
2018-Jul-16 01:30N 35°54' W 005°19'0 0.0
2018-Jul-16 00:59N 35°54' W 005°19'0 0.0
2018-Jul-16 00:30N 35°54' W 005°19'0 0.0
2018-Jul-16 00:00N 35°54' W 005°19'0 0.0
2018-Jul-15 23:30N 35°54' W 005°19'0 0.0
2018-Jul-15 23:00N 35°54' W 005°19'5 9.7
2018-Jul-15 22:31N 35°59' W 005°19'918.4
2018-Jul-15 22:00N 36°07' W 005°24'2 4.5
2018-Jul-15 21:30N 36°08' W 005°26'0 0.0
2018-Jul-15 21:00N 36°08' W 005°26'0 0.0
2018-Jul-15 19:41N 36°08' W 005°26'7 9.5
2018-Jul-15 18:54N 36°02' W 005°21'716.9
2018-Jul-15 18:30N 35°55' W 005°19'1 2.9
2018-Jul-15 18:00N 35°54' W 005°19'1 1.4
2018-Jul-15 17:31N 35°54' W 005°19'918.3
2018-Jul-15 17:00N 36°03' W 005°22'713.2
2018-Jul-15 16:30N 36°09' W 005°26'1 1.4
2018-Jul-15 16:00N 36°08' W 005°26'0 0.3
2018-Jul-15 15:31N 36°08' W 005°26'2 4.4
2018-Jul-15 15:00N 36°07' W 005°23'917.6
2018-Jul-15 14:30N 35°59' W 005°20'510.6
2018-Jul-15 14:00N 35°54' W 005°19'0 0.0
2018-Jul-15 13:30N 35°54' W 005°19'3 6.1
2018-Jul-15 13:00N 35°57' W 005°19'918.3
2018-Jul-15 12:30N 36°05' W 005°23'4 7.3
2018-Jul-15 12:00N 36°08' W 005°26'7 4.2
2018-Jul-15 10:18N 36°02' W 005°22'516.3
2018-Jul-15 10:01N 35°57' W 005°20'4 7.2
2018-Jul-15 09:30N 35°54' W 005°19'0 0.0
2018-Jul-15 09:00N 35°54' W 005°19'0 0.0
2018-Jul-15 08:30N 35°54' W 005°19'0 0.0
2018-Jul-15 08:00N 35°54' W 005°19'0 0.0
2018-Jul-15 07:30N 35°54' W 005°19'3 6.8
2018-Jul-15 07:01N 35°57' W 005°19'1018.3
2018-Jul-15 06:27N 36°07' W 005°24'3 5.6
2018-Jul-15 06:00N 36°08' W 005°26'0 0.0
2018-Jul-15 05:30N 36°08' W 005°26'2 4.7
2018-Jul-15 05:00N 36°07' W 005°23'918.0
2018-Jul-15 04:31N 35°59' W 005°20'510.4
2018-Jul-15 04:00N 35°54' W 005°19'0 0.0
2018-Jul-15 03:30N 35°54' W 005°19'0 0.0
2018-Jul-15 03:00N 35°54' W 005°19'0 0.0
2018-Jul-15 02:30N 35°54' W 005°19'0 0.0
2018-Jul-15 02:00N 35°54' W 005°19'0 0.0
2018-Jul-15 01:29N 35°54' W 005°19'0 0.0
2018-Jul-15 01:00N 35°54' W 005°19'0 0.0
2018-Jul-15 00:30N 35°54' W 005°19'0 0.0
2018-Jul-15 00:00N 35°54' W 005°19'0 0.0
2018-Jul-14 23:30N 35°54' W 005°19'0 0.0
2018-Jul-14 23:00N 35°54' W 005°19'1 1.3
2018-Jul-14 22:30N 35°54' W 005°19'918.9
2018-Jul-14 22:00N 36°03' W 005°23'6 3.9
2018-Jul-14 20:31N 36°08' W 005°26'0 0.0
2018-Jul-14 20:30N 36°08' W 005°26'0 0.0
2018-Jul-14 19:59N 36°08' W 005°26'0 0.0
2018-Jul-14 19:30N 36°08' W 005°26'2 3.9
2018-Jul-14 18:59N 36°08' W 005°24'817.8
2018-Jul-14 18:30N 35°60' W 005°21'611.8
2018-Jul-14 18:00N 35°54' W 005°19'0 0.0
2018-Jul-14 17:30N 35°54' W 005°19'4 7.2
2018-Jul-14 17:01N 35°57' W 005°19'918.1
2018-Jul-14 16:30N 36°05' W 005°24'3 6.3
2018-Jul-14 16:01N 36°08' W 005°26'0 0.0
2018-Jul-14 15:30N 36°08' W 005°26'2 4.2
2018-Jul-14 15:00N 36°08' W 005°24'1514.9
2018-Jul-14 14:00N 35°54' W 005°19'0 0.0
2018-Jul-14 13:30N 35°54' W 005°19'2 4.4
2018-Jul-14 13:00N 35°56' W 005°19'918.7
2018-Jul-14 12:31N 36°05' W 005°23'4 2.8
2018-Jul-14 10:58N 36°08' W 005°26'8 9.9
2018-Jul-14 10:12N 36°01' W 005°22'317.4
2018-Jul-14 10:00N 35°58' W 005°20'4 8.7
2018-Jul-14 09:30N 35°54' W 005°19'0 0.0
2018-Jul-14 09:01N 35°54' W 005°19'0 0.0
2018-Jul-14 08:31N 35°54' W 005°19'0 0.0
2018-Jul-14 08:01N 35°54' W 005°19'0 0.0
2018-Jul-14 07:31N 35°54' W 005°19'3 6.3
2018-Jul-14 07:01N 35°57' W 005°19'918.6
2018-Jul-14 06:30N 36°05' W 005°24'3 6.4
2018-Jul-14 06:00N 36°08' W 005°26'0 0.1
2018-Jul-14 05:31N 36°08' W 005°26'4 7.2
2018-Jul-14 04:59N 36°05' W 005°23'817.8
2018-Jul-14 04:30N 35°57' W 005°20'4 7.2
2018-Jul-14 04:00N 35°54' W 005°19'0 0.0
2018-Jul-14 03:30N 35°54' W 005°19'0 0.0
2018-Jul-14 03:00N 35°54' W 005°19'0 0.0
2018-Jul-14 02:30N 35°54' W 005°19'0 0.0
2018-Jul-14 02:00N 35°54' W 005°19'0 0.0
2018-Jul-14 01:30N 35°54' W 005°19'0 0.0
2018-Jul-14 01:00N 35°54' W 005°19'0 0.0
2018-Jul-14 00:30N 35°54' W 005°19'0 0.0
2018-Jul-14 00:00N 35°54' W 005°19'0 0.0
2018-Jul-13 23:30N 35°54' W 005°19'0 0.0
2018-Jul-13 23:00N 35°54' W 005°19'2 3.9
2018-Jul-13 22:30N 35°55' W 005°18'1018.7
2018-Jul-13 22:00N 36°04' W 005°23'4 2.0
2018-Jul-13 19:45N 36°08' W 005°26'4 7.0
2018-Jul-13 19:12N 36°06' W 005°22'418.1
2018-Jul-13 19:00N 36°03' W 005°20'917.3
2018-Jul-13 18:31N 35°54' W 005°18'1 1.5
2018-Jul-13 17:59N 35°54' W 005°19'3 5.9
2018-Jul-13 17:31N 35°57' W 005°19'918.2
2018-Jul-13 17:00N 36°05' W 005°23'4 7.3
2018-Jul-13 16:30N 36°08' W 005°26'0 0.1
2018-Jul-13 15:48N 36°08' W 005°26'6 9.0
2018-Jul-13 15:05N 36°03' W 005°22'116.7
2018-Jul-13 15:01N 36°01' W 005°21'815.6
2018-Jul-13 14:30N 35°54' W 005°19'1 0.6
2018-Jul-13 13:30N 35°54' W 005°19'4 9.0
2018-Jul-13 13:00N 35°58' W 005°19'11 0.7
2018-Jul-12 21:31N 36°08' W 005°26'0 0.0
2018-Jul-12 21:30N 36°08' W 005°26'0 0.0
2018-Jul-12 21:00N 36°08' W 005°26'0 0.0
2018-Jul-12 20:29N 36°08' W 005°26'0 0.0
2018-Jul-12 20:00N 36°08' W 005°26'0 0.0
2018-Jul-12 19:30N 36°08' W 005°26'2 3.6
2018-Jul-12 19:00N 36°08' W 005°24'816.9
2018-Jul-12 18:31N 36°00' W 005°20'713.0
2018-Jul-12 18:00N 35°54' W 005°19'0 0.0
2018-Jul-12 17:30N 35°54' W 005°19'2 4.8
2018-Jul-12 17:00N 35°56' W 005°19'918.6
2018-Jul-12 16:30N 36°05' W 005°23'4 3.5
2018-Jul-12 15:13N 36°09' W 005°26'514.1
2018-Jul-12 14:52N 36°05' W 005°22'616.8
2018-Jul-12 14:31N 35°59' W 005°20'510.4
2018-Jul-12 14:00N 35°54' W 005°19'0 0.0
2018-Jul-12 13:30N 35°54' W 005°19'2 4.4
2018-Jul-12 13:00N 35°56' W 005°19'918.3
2018-Jul-12 12:30N 36°05' W 005°22'4 3.0
2018-Jul-12 11:02N 36°08' W 005°26'0 1.7
2018-Jul-12 11:00N 36°08' W 005°26'6 9.7
2018-Jul-12 10:25N 36°03' W 005°22'716.5
2018-Jul-12 10:01N 35°57' W 005°19'3 6.5
2018-Jul-12 09:30N 35°54' W 005°19'0 0.0
2018-Jul-12 09:01N 35°54' W 005°19'0 0.0
2018-Jul-12 08:31N 35°54' W 005°19'3 0.2
2018-Jul-11 18:32N 35°57' W 005°19'116.1
2018-Jul-11 18:30N 35°57' W 005°19'3 5.9
2018-Jul-11 18:01N 35°54' W 005°19'0 0.0
2018-Jul-11 17:30N 35°54' W 005°19'3 5.3
2018-Jul-11 17:01N 35°56' W 005°19'918.5
2018-Jul-11 16:31N 36°05' W 005°23'4 4.6
2018-Jul-11 15:40N 36°08' W 005°26'0 1.7
2018-Jul-11 15:30N 36°08' W 005°26'812.0
2018-Jul-11 14:51N 36°01' W 005°21'616.4
2018-Jul-11 14:31N 35°56' W 005°19'2 4.3
2018-Jul-11 14:00N 35°54' W 005°19'0 0.0
2018-Jul-11 13:30N 35°54' W 005°19'3 5.5
2018-Jul-11 13:00N 35°56' W 005°19'918.3
2018-Jul-11 12:31N 36°05' W 005°23'4 2.3
2018-Jul-11 10:49N 36°08' W 005°26'612.0
2018-Jul-11 10:19N 36°04' W 005°21'516.7
2018-Jul-11 10:01N 35°59' W 005°20'5 9.8
2018-Jul-11 09:30N 35°54' W 005°19'0 0.0
2018-Jul-11 09:00N 35°54' W 005°19'0 0.0
2018-Jul-11 08:29N 35°54' W 005°19'0 0.0
2018-Jul-11 07:59N 35°54' W 005°19'0 0.0
2018-Jul-11 07:30N 35°54' W 005°19'5 9.3
2018-Jul-11 07:01N 35°58' W 005°20'918.0
2018-Jul-11 06:31N 36°07' W 005°23'3 3.2
2018-Jul-11 05:41N 36°08' W 005°26'0 0.0
2018-Jul-11 05:30N 36°08' W 005°26'2 4.4
2018-Jul-11 05:00N 36°07' W 005°24'917.7
2018-Jul-11 04:30N 35°59' W 005°21'510.6
2018-Jul-11 04:00N 35°54' W 005°19'0 0.0
2018-Jul-11 03:30N 35°54' W 005°19'0 0.0
2018-Jul-11 03:00N 35°54' W 005°19'0 0.0
2018-Jul-11 02:30N 35°54' W 005°19'0 0.0
2018-Jul-11 02:00N 35°54' W 005°19'0 0.0
2018-Jul-11 01:30N 35°54' W 005°19'0 0.0
2018-Jul-11 01:00N 35°54' W 005°19'0 0.0
2018-Jul-11 00:30N 35°54' W 005°19'0 0.0
2018-Jul-11 00:00N 35°54' W 005°19'  
Track history (hours):
 
Tides and Currents Weather Stations Pressure Air Temp Water Temp Dewpoint Dewpoint Depression Visibility Wind Speed Wind Dir Waves Ship Positions

Pasio Per Formentera

Last reported at 2018-Jul-20 23:31 UTC. Time now 2018-Jul-20 23:32 UTC.
Position N 35°54' W 005°19'.

Length 101 m; draft 4.2 m.

Type: Ship. MMSI: 224593000.

Date/timePositionNaut miles runAvg speedWind from/ knotsBaromVisibWave heightAir tempDewpointWater temp
2018-Jul-20 23:31N 35°54' W 005°19'0 0.0
2018-Jul-20 23:00N 35°54' W 005°19'5 9.4
2018-Jul-20 22:30N 35°58' W 005°19'918.6
2018-Jul-20 22:00N 36°07' W 005°24'2 4.3
2018-Jul-20 21:30N 36°08' W 005°26'0 0.0
2018-Jul-20 21:00N 36°08' W 005°26'0 0.0
2018-Jul-20 20:30N 36°08' W 005°26'0 0.0
2018-Jul-20 20:00N 36°08' W 005°26'0 0.0
2018-Jul-20 19:30N 36°08' W 005°26'3 6.0
2018-Jul-20 19:00N 36°06' W 005°23'917.7
2018-Jul-20 18:30N 35°58' W 005°20'4 7.7
2018-Jul-20 18:00N 35°54' W 005°19'0 0.0
2018-Jul-20 17:30N 35°54' W 005°19'612.1
2018-Jul-20 17:01N 35°60' W 005°21'917.9
2018-Jul-20 16:30N 36°08' W 005°24'1 1.6
2018-Jul-20 15:40N 36°08' W 005°26'2 7.2
2018-Jul-20 15:26N 36°08' W 005°24'717.7
2018-Jul-20 15:00N 36°01' W 005°21'714.6
2018-Jul-20 14:30N 35°54' W 005°19'0 0.5
2018-Jul-20 14:00N 35°54' W 005°19'10 0.4
2018-Jul-19 12:52N 36°04' W 005°22'4 0.1
2018-Jul-18 06:29N 36°07' W 005°24'2 2.5
2018-Jul-18 05:44N 36°08' W 005°26'0 0.0
2018-Jul-18 05:30N 36°08' W 005°26'2 4.0
2018-Jul-18 04:59N 36°07' W 005°24'918.0
2018-Jul-18 04:30N 35°59' W 005°21'510.7
2018-Jul-18 04:00N 35°54' W 005°19'0 0.0
2018-Jul-18 03:30N 35°54' W 005°19'0 0.0
2018-Jul-18 03:00N 35°54' W 005°19'0 0.0
2018-Jul-18 02:30N 35°54' W 005°19'0 0.0
2018-Jul-18 02:00N 35°54' W 005°19'0 0.0
2018-Jul-18 01:30N 35°54' W 005°19'0 0.0
2018-Jul-18 01:00N 35°54' W 005°19'0 0.0
2018-Jul-18 00:30N 35°54' W 005°19'0 0.0
2018-Jul-18 00:00N 35°54' W 005°19'0 0.0
2018-Jul-17 23:30N 35°54' W 005°19'0 0.0
2018-Jul-17 23:00N 35°54' W 005°19'3 5.2
2018-Jul-17 22:30N 35°56' W 005°18'1018.8
2018-Jul-17 22:00N 36°05' W 005°24'4 7.7
2018-Jul-17 21:30N 36°08' W 005°26'0 0.0
2018-Jul-17 21:00N 36°08' W 005°26'0 0.0
2018-Jul-17 20:29N 36°08' W 005°26'0 0.0
2018-Jul-17 19:59N 36°08' W 005°26'0 0.1
2018-Jul-17 19:30N 36°08' W 005°26'3 6.9
2018-Jul-17 19:00N 36°06' W 005°23'917.4
2018-Jul-17 18:30N 35°58' W 005°19'4 8.1
2018-Jul-17 18:01N 35°54' W 005°19'0 0.6
2018-Jul-17 17:31N 35°54' W 005°19'714.9
2018-Jul-17 17:00N 36°01' W 005°22'917.1
2018-Jul-17 16:30N 36°09' W 005°25'1 1.2
2018-Jul-17 15:27N 36°08' W 005°26'2 5.1
2018-Jul-17 15:00N 36°07' W 005°24'918.4
2018-Jul-17 14:31N 35°58' W 005°21'5 9.0
2018-Jul-17 14:00N 35°54' W 005°19'0 0.0
2018-Jul-17 13:31N 35°54' W 005°19'3 6.6
2018-Jul-17 13:01N 35°57' W 005°19'917.8
2018-Jul-17 12:31N 36°05' W 005°23'4 5.6
2018-Jul-17 11:51N 36°08' W 005°26'7 4.8
2018-Jul-17 10:17N 36°02' W 005°21'517.9
2018-Jul-17 10:00N 35°57' W 005°20'3 5.9
2018-Jul-17 09:30N 35°54' W 005°19'0 0.0
2018-Jul-17 09:00N 35°54' W 005°19'0 0.0
2018-Jul-17 08:30N 35°54' W 005°19'5 3.4
2018-Jul-17 06:58N 35°59' W 005°20'918.3
2018-Jul-17 06:30N 36°07' W 005°24'2 3.3
2018-Jul-17 05:48N 36°08' W 005°26'0 0.0
2018-Jul-17 05:30N 36°08' W 005°26'3 6.3
2018-Jul-17 05:00N 36°06' W 005°23'917.9
2018-Jul-17 04:30N 35°57' W 005°20'4 7.0
2018-Jul-17 03:59N 35°54' W 005°19'0 0.0
2018-Jul-17 03:30N 35°54' W 005°19'0 0.0
2018-Jul-17 03:00N 35°54' W 005°19'0 0.0
2018-Jul-17 02:30N 35°54' W 005°19'0 0.0
2018-Jul-17 02:00N 35°54' W 005°19'0 0.0
2018-Jul-17 01:29N 35°54' W 005°19'0 0.0
2018-Jul-17 01:00N 35°54' W 005°19'0 0.0
2018-Jul-17 00:30N 35°54' W 005°19'0 0.0
2018-Jul-16 23:30N 35°54' W 005°19'0 0.0
2018-Jul-16 23:00N 35°54' W 005°19'4 7.9
2018-Jul-16 22:31N 35°58' W 005°20'917.7
2018-Jul-16 22:00N 36°06' W 005°23'3 6.0
2018-Jul-16 21:29N 36°08' W 005°26'0 0.0
2018-Jul-16 21:00N 36°08' W 005°26'0 0.0
2018-Jul-16 20:29N 36°08' W 005°26'0 0.0
2018-Jul-16 20:00N 36°08' W 005°26'0 0.0
2018-Jul-16 19:31N 36°08' W 005°26'2 4.4
2018-Jul-16 19:00N 36°07' W 005°24'918.0
2018-Jul-16 18:30N 35°59' W 005°20'510.4
2018-Jul-16 18:00N 35°54' W 005°19'0 0.0
2018-Jul-16 17:30N 35°54' W 005°19'2 3.6
2018-Jul-16 17:00N 35°55' W 005°19'918.5
2018-Jul-16 16:30N 36°04' W 005°23'5 9.1
2018-Jul-16 16:00N 36°08' W 005°26'0 0.1
2018-Jul-16 15:29N 36°08' W 005°26'2 3.4
2018-Jul-16 14:58N 36°08' W 005°24'817.9
2018-Jul-16 14:29N 36°00' W 005°21'714.4
2018-Jul-16 14:00N 35°54' W 005°19'0 0.3
2018-Jul-16 13:30N 35°54' W 005°19'3 5.4
2018-Jul-16 13:00N 35°56' W 005°19'1019.0
2018-Jul-16 12:30N 36°05' W 005°23'3 2.5
2018-Jul-16 11:08N 36°08' W 005°26'0 1.6
2018-Jul-16 11:00N 36°08' W 005°26'5 9.7
2018-Jul-16 10:31N 36°04' W 005°22'917.6
2018-Jul-16 10:01N 35°56' W 005°19'2 4.0
2018-Jul-16 09:30N 35°54' W 005°19'0 0.0
2018-Jul-16 09:00N 35°54' W 005°19'0 0.0
2018-Jul-16 08:30N 35°54' W 005°19'0 0.0
2018-Jul-16 08:00N 35°54' W 005°19'0 0.0
2018-Jul-16 07:29N 35°54' W 005°19'510.6
2018-Jul-16 07:00N 35°59' W 005°20'917.8
2018-Jul-16 06:30N 36°07' W 005°24'2 4.1
2018-Jul-16 06:00N 36°08' W 005°26'0 0.8
2018-Jul-16 05:30N 36°08' W 005°26'710.3
2018-Jul-16 04:48N 36°02' W 005°22'517.6
2018-Jul-16 04:30N 35°57' W 005°20'3 6.7
2018-Jul-16 04:00N 35°54' W 005°19'0 0.0
2018-Jul-16 03:30N 35°54' W 005°19'0 0.0
2018-Jul-16 03:00N 35°54' W 005°19'0 0.0
2018-Jul-16 02:30N 35°54' W 005°19'0 0.0
2018-Jul-16 02:00N 35°54' W 005°19'0 0.0
2018-Jul-16 01:30N 35°54' W 005°19'0 0.0
2018-Jul-16 00:59N 35°54' W 005°19'0 0.0
2018-Jul-16 00:30N 35°54' W 005°19'0 0.0
2018-Jul-16 00:00N 35°54' W 005°19'0 0.0
2018-Jul-15 23:30N 35°54' W 005°19'0 0.0
2018-Jul-15 23:00N 35°54' W 005°19'5 9.7
2018-Jul-15 22:31N 35°59' W 005°19'918.4
2018-Jul-15 22:00N 36°07' W 005°24'2 4.5
2018-Jul-15 21:30N 36°08' W 005°26'0 0.0
2018-Jul-15 21:00N 36°08' W 005°26'0 0.0
2018-Jul-15 19:41N 36°08' W 005°26'7 9.5
2018-Jul-15 18:54N 36°02' W 005°21'716.9
2018-Jul-15 18:30N 35°55' W 005°19'1 2.9
2018-Jul-15 18:00N 35°54' W 005°19'1 1.4
2018-Jul-15 17:31N 35°54' W 005°19'918.3
2018-Jul-15 17:00N 36°03' W 005°22'713.2
2018-Jul-15 16:30N 36°09' W 005°26'1 1.4
2018-Jul-15 16:00N 36°08' W 005°26'0 0.3
2018-Jul-15 15:31N 36°08' W 005°26'2 4.4
2018-Jul-15 15:00N 36°07' W 005°23'917.6
2018-Jul-15 14:30N 35°59' W 005°20'510.6
2018-Jul-15 14:00N 35°54' W 005°19'0 0.0
2018-Jul-15 13:30N 35°54' W 005°19'3 6.1
2018-Jul-15 13:00N 35°57' W 005°19'918.3
2018-Jul-15 12:30N 36°05' W 005°23'4 7.3
2018-Jul-15 12:00N 36°08' W 005°26'7 4.2
2018-Jul-15 10:18N 36°02' W 005°22'516.3
2018-Jul-15 10:01N 35°57' W 005°20'4 7.2
2018-Jul-15 09:30N 35°54' W 005°19'0 0.0
2018-Jul-15 09:00N 35°54' W 005°19'0 0.0
2018-Jul-15 08:30N 35°54' W 005°19'0 0.0
2018-Jul-15 08:00N 35°54' W 005°19'0 0.0
2018-Jul-15 07:30N 35°54' W 005°19'3 6.8
2018-Jul-15 07:01N 35°57' W 005°19'1018.3
2018-Jul-15 06:27N 36°07' W 005°24'3 5.6
2018-Jul-15 06:00N 36°08' W 005°26'0 0.0
2018-Jul-15 05:30N 36°08' W 005°26'2 4.7
2018-Jul-15 05:00N 36°07' W 005°23'918.0
2018-Jul-15 04:31N 35°59' W 005°20'510.4
2018-Jul-15 04:00N 35°54' W 005°19'0 0.0
2018-Jul-15 03:30N 35°54' W 005°19'0 0.0
2018-Jul-15 03:00N 35°54' W 005°19'0 0.0
2018-Jul-15 02:30N 35°54' W 005°19'0 0.0
2018-Jul-15 02:00N 35°54' W 005°19'0 0.0
2018-Jul-15 01:29N 35°54' W 005°19'0 0.0
2018-Jul-15 01:00N 35°54' W 005°19'0 0.0
2018-Jul-15 00:30N 35°54' W 005°19'0 0.0
2018-Jul-15 00:00N 35°54' W 005°19'0 0.0
2018-Jul-14 23:30N 35°54' W 005°19'0 0.0
2018-Jul-14 23:00N 35°54' W 005°19'1 1.3
2018-Jul-14 22:30N 35°54' W 005°19'918.9
2018-Jul-14 22:00N 36°03' W 005°23'6 3.9
2018-Jul-14 20:31N 36°08' W 005°26'0 0.0
2018-Jul-14 20:30N 36°08' W 005°26'0 0.0
2018-Jul-14 19:59N 36°08' W 005°26'0 0.0
2018-Jul-14 19:30N 36°08' W 005°26'2 3.9
2018-Jul-14 18:59N 36°08' W 005°24'817.8
2018-Jul-14 18:30N 35°60' W 005°21'611.8
2018-Jul-14 18:00N 35°54' W 005°19'0 0.0
2018-Jul-14 17:30N 35°54' W 005°19'4 7.2
2018-Jul-14 17:01N 35°57' W 005°19'918.1
2018-Jul-14 16:30N 36°05' W 005°24'3 6.3
2018-Jul-14 16:01N 36°08' W 005°26'0 0.0
2018-Jul-14 15:30N 36°08' W 005°26'2 4.2
2018-Jul-14 15:00N 36°08' W 005°24'1514.9
2018-Jul-14 14:00N 35°54' W 005°19'0 0.0
2018-Jul-14 13:30N 35°54' W 005°19'2 4.4
2018-Jul-14 13:00N 35°56' W 005°19'918.7
2018-Jul-14 12:31N 36°05' W 005°23'4 2.8
2018-Jul-14 10:58N 36°08' W 005°26'8 9.9
2018-Jul-14 10:12N 36°01' W 005°22'317.4
2018-Jul-14 10:00N 35°58' W 005°20'4 8.7
2018-Jul-14 09:30N 35°54' W 005°19'0 0.0
2018-Jul-14 09:01N 35°54' W 005°19'0 0.0
2018-Jul-14 08:31N 35°54' W 005°19'0 0.0
2018-Jul-14 08:01N 35°54' W 005°19'0 0.0
2018-Jul-14 07:31N 35°54' W 005°19'3 6.3
2018-Jul-14 07:01N 35°57' W 005°19'918.6
2018-Jul-14 06:30N 36°05' W 005°24'3 6.4
2018-Jul-14 06:00N 36°08' W 005°26'0 0.1
2018-Jul-14 05:31N 36°08' W 005°26'4 7.2
2018-Jul-14 04:59N 36°05' W 005°23'817.8
2018-Jul-14 04:30N 35°57' W 005°20'4 7.2
2018-Jul-14 04:00N 35°54' W 005°19'0 0.0
2018-Jul-14 03:30N 35°54' W 005°19'0 0.0
2018-Jul-14 03:00N 35°54' W 005°19'0 0.0
2018-Jul-14 02:30N 35°54' W 005°19'0 0.0
2018-Jul-14 02:00N 35°54' W 005°19'0 0.0
2018-Jul-14 01:30N 35°54' W 005°19'0 0.0
2018-Jul-14 01:00N 35°54' W 005°19'0 0.0
2018-Jul-14 00:30N 35°54' W 005°19'0 0.0
2018-Jul-14 00:00N 35°54' W 005°19'0 0.0
2018-Jul-13 23:30N 35°54' W 005°19'0 0.0
2018-Jul-13 23:00N 35°54' W 005°19'2 3.9
2018-Jul-13 22:30N 35°55' W 005°18'1018.7
2018-Jul-13 22:00N 36°04' W 005°23'4 2.0
2018-Jul-13 19:45N 36°08' W 005°26'4 7.0
2018-Jul-13 19:12N 36°06' W 005°22'418.1
2018-Jul-13 19:00N 36°03' W 005°20'917.3
2018-Jul-13 18:31N 35°54' W 005°18'1 1.5
2018-Jul-13 17:59N 35°54' W 005°19'3 5.9
2018-Jul-13 17:31N 35°57' W 005°19'918.2
2018-Jul-13 17:00N 36°05' W 005°23'4 7.3
2018-Jul-13 16:30N 36°08' W 005°26'0 0.1
2018-Jul-13 15:48N 36°08' W 005°26'6 9.0
2018-Jul-13 15:05N 36°03' W 005°22'116.7
2018-Jul-13 15:01N 36°01' W 005°21'815.6
2018-Jul-13 14:30N 35°54' W 005°19'1 0.6
2018-Jul-13 13:30N 35°54' W 005°19'4 9.0
2018-Jul-13 13:00N 35°58' W 005°19'11 0.7
2018-Jul-12 21:31N 36°08' W 005°26'0 0.0
2018-Jul-12 21:30N 36°08' W 005°26'0 0.0
2018-Jul-12 21:00N 36°08' W 005°26'0 0.0
2018-Jul-12 20:29N 36°08' W 005°26'0 0.0
2018-Jul-12 20:00N 36°08' W 005°26'0 0.0
2018-Jul-12 19:30N 36°08' W 005°26'2 3.6
2018-Jul-12 19:00N 36°08' W 005°24'816.9
2018-Jul-12 18:31N 36°00' W 005°20'713.0
2018-Jul-12 18:00N 35°54' W 005°19'0 0.0
2018-Jul-12 17:30N 35°54' W 005°19'2 4.8
2018-Jul-12 17:00N 35°56' W 005°19'918.6
2018-Jul-12 16:30N 36°05' W 005°23'4 3.5
2018-Jul-12 15:13N 36°09' W 005°26'514.1
2018-Jul-12 14:52N 36°05' W 005°22'616.8
2018-Jul-12 14:31N 35°59' W 005°20'510.4
2018-Jul-12 14:00N 35°54' W 005°19'0 0.0
2018-Jul-12 13:30N 35°54' W 005°19'2 4.4
2018-Jul-12 13:00N 35°56' W 005°19'918.3
2018-Jul-12 12:30N 36°05' W 005°22'4 3.0
2018-Jul-12 11:02N 36°08' W 005°26'0 1.7
2018-Jul-12 11:00N 36°08' W 005°26'6 9.7
2018-Jul-12 10:25N 36°03' W 005°22'716.5
2018-Jul-12 10:01N 35°57' W 005°19'3 6.5
2018-Jul-12 09:30N 35°54' W 005°19'0 0.0
2018-Jul-12 09:01N 35°54' W 005°19'0 0.0
2018-Jul-12 08:31N 35°54' W 005°19'3 0.2
2018-Jul-11 18:32N 35°57' W 005°19'116.1
2018-Jul-11 18:30N 35°57' W 005°19'3 5.9
2018-Jul-11 18:01N 35°54' W 005°19'0 0.0
2018-Jul-11 17:30N 35°54' W 005°19'3 5.3
2018-Jul-11 17:01N 35°56' W 005°19'918.5
2018-Jul-11 16:31N 36°05' W 005°23'4 4.6
2018-Jul-11 15:40N 36°08' W 005°26'0 1.7
2018-Jul-11 15:30N 36°08' W 005°26'812.0
2018-Jul-11 14:51N 36°01' W 005°21'616.4
2018-Jul-11 14:31N 35°56' W 005°19'2 4.3
2018-Jul-11 14:00N 35°54' W 005°19'0 0.0
2018-Jul-11 13:30N 35°54' W 005°19'3 5.5
2018-Jul-11 13:00N 35°56' W 005°19'918.3
2018-Jul-11 12:31N 36°05' W 005°23'4 2.3
2018-Jul-11 10:49N 36°08' W 005°26'612.0
2018-Jul-11 10:19N 36°04' W 005°21'516.7
2018-Jul-11 10:01N 35°59' W 005°20'5 9.8
2018-Jul-11 09:30N 35°54' W 005°19'0 0.0
2018-Jul-11 09:00N 35°54' W 005°19'0 0.0
2018-Jul-11 08:29N 35°54' W 005°19'0 0.0
2018-Jul-11 07:59N 35°54' W 005°19'0 0.0
2018-Jul-11 07:30N 35°54' W 005°19'5 9.3
2018-Jul-11 07:01N 35°58' W 005°20'918.0
2018-Jul-11 06:31N 36°07' W 005°23'3 3.2
2018-Jul-11 05:41N 36°08' W 005°26'0 0.0
2018-Jul-11 05:30N 36°08' W 005°26'2 4.4
2018-Jul-11 05:00N 36°07' W 005°24'917.7
2018-Jul-11 04:30N 35°59' W 005°21'510.6
2018-Jul-11 04:00N 35°54' W 005°19'0 0.0
2018-Jul-11 03:30N 35°54' W 005°19'0 0.0
2018-Jul-11 03:00N 35°54' W 005°19'0 0.0
2018-Jul-11 02:30N 35°54' W 005°19'0 0.0
2018-Jul-11 02:00N 35°54' W 005°19'0 0.0
2018-Jul-11 01:30N 35°54' W 005°19'0 0.0
2018-Jul-11 01:00N 35°54' W 005°19'0 0.0
2018-Jul-11 00:30N 35°54' W 005°19'0 0.0
2018-Jul-11 00:00N 35°54' W 005°19'  

Dump ship's entire track history